Arian — V2FM3 — position and weather

sailwx.info

Track history (hours):
 
Tides and Currents Weather Stations Pressure Air Temp Water Temp Dewpoint Dewpoint Depression Visibility Wind Speed Wind Dir Waves Ship Positions

Arian

Last reported at 2017-Dec-03 19:51 UTC. Time now 2017-Dec-11 11:16 UTC.
Position N 31°38' W 080°31'.

Length 161 m; draft 9.8 m.

Type: Ship (hazmat cat A). MMSI: 305720000.

Date/timePositionNaut miles runAvg speedWind from/ knotsBaromVisibWave heightAir tempDewpointWater temp
2017-Dec-03 19:51N 31°38' W 080°31'5 9.1
2017-Dec-03 19:21N 31°43' W 080°32'3 9.1
2017-Dec-03 19:00N 31°46' W 080°33'4 9.0
2017-Dec-03 18:30N 31°49' W 080°36'5 9.3
2017-Dec-03 17:59N 31°53' W 080°39'4 9.5
2017-Dec-03 17:30N 31°57' W 080°42'510.6
2017-Dec-03 17:00N 31°60' W 080°47'713.4
2017-Dec-03 16:30N 32°02' W 080°55'612.9
2017-Dec-03 16:00N 32°06' W 081°01'4 8.7
2017-Dec-03 15:30N 32°05' W 081°06'2 4.8
2017-Dec-03 15:00N 32°07' W 081°08'0 0.0
2017-Dec-03 14:30N 32°07' W 081°08'0 0.0
2017-Dec-03 14:00N 32°07' W 081°08'0 0.0
2017-Dec-03 13:30N 32°07' W 081°08'0 0.0
2017-Dec-03 12:54N 32°07' W 081°08'0 0.0
2017-Dec-03 12:30N 32°07' W 081°08'0 0.0
2017-Dec-03 12:00N 32°07' W 081°08'0 0.0
2017-Dec-03 11:30N 32°07' W 081°08'0 0.0
2017-Dec-03 11:00N 32°07' W 081°08'0 0.0
2017-Dec-03 10:24N 32°07' W 081°08'0 0.0
2017-Dec-03 10:00N 32°07' W 081°08'0 0.0
2017-Dec-03 09:30N 32°07' W 081°08'0 0.0
2017-Dec-03 08:54N 32°07' W 081°08'0 0.0
2017-Dec-03 08:24N 32°07' W 081°08'0 0.0
2017-Dec-03 08:00N 32°07' W 081°08'0 0.0
2017-Dec-03 07:30N 32°07' W 081°08'0 0.0
2017-Dec-03 07:00N 32°07' W 081°08'0 0.0
2017-Dec-03 06:30N 32°07' W 081°08'0 0.0
2017-Dec-03 06:00N 32°07' W 081°08'0 0.0
2017-Dec-03 05:30N 32°07' W 081°08'0 0.0
2017-Dec-03 05:00N 32°07' W 081°08'0 0.0
2017-Dec-03 04:30N 32°07' W 081°08'0 0.0
2017-Dec-03 03:48N 32°07' W 081°08'0 0.0
2017-Dec-03 03:30N 32°07' W 081°08'0 0.0
2017-Dec-03 03:00N 32°07' W 081°08'0 0.0
2017-Dec-03 02:30N 32°07' W 081°08'0 0.0
2017-Dec-03 02:00N 32°07' W 081°08'0 0.0
2017-Dec-03 01:30N 32°07' W 081°08'0 0.0
2017-Dec-03 01:00N 32°07' W 081°08'0 0.0
2017-Dec-03 00:24N 32°07' W 081°08'0 0.0
2017-Dec-03 00:00N 32°07' W 081°08'0 0.0
2017-Dec-02 23:30N 32°07' W 081°08'0 0.0
2017-Dec-02 23:00N 32°07' W 081°08'0 0.0
2017-Dec-02 22:30N 32°07' W 081°08'0 0.0
2017-Dec-02 22:00N 32°07' W 081°08'0 0.0
2017-Dec-02 21:30N 32°07' W 081°08'0 0.0
2017-Dec-02 21:00N 32°07' W 081°08'0 0.0
2017-Dec-02 20:30N 32°07' W 081°08'0 0.0
2017-Dec-02 20:00N 32°07' W 081°08'0 0.0
2017-Dec-02 19:24N 32°07' W 081°08'0 0.0
2017-Dec-02 18:54N 32°07' W 081°08'0 0.0
2017-Dec-02 18:30N 32°07' W 081°08'0 0.0
2017-Dec-02 18:00N 32°07' W 081°08'0 0.0
2017-Dec-02 17:30N 32°07' W 081°08'0 0.8
2017-Dec-02 17:00N 32°08' W 081°08'1 2.2
2017-Dec-02 16:30N 32°07' W 081°07'3 6.1
2017-Dec-02 16:01N 32°05' W 081°05'3 6.7
2017-Dec-02 15:31N 32°06' W 081°01'5 9.1
2017-Dec-02 15:00N 32°03' W 080°56'4 8.5
2017-Dec-02 14:30N 32°02' W 080°52'510.4
2017-Dec-02 14:00N 31°59' W 080°46'611.8
2017-Dec-02 13:30N 31°57' W 080°40'4 8.4
2017-Dec-02 13:00N 31°58' W 080°35'2 3.5
2017-Dec-02 12:30N 31°58' W 080°33'0 0.4
2017-Dec-02 12:00N 31°58' W 080°34'0 0.1
2017-Dec-02 11:28N 31°58' W 080°34'0 0.0
2017-Dec-02 10:58N 31°58' W 080°34'0 0.0
2017-Dec-02 10:28N 31°58' W 080°34'0 0.0
2017-Dec-02 09:52N 31°58' W 080°34'0 0.0
2017-Dec-02 09:28N 31°58' W 080°34'0 0.0
2017-Dec-02 08:58N 31°58' W 080°34'0 0.0
2017-Dec-02 08:28N 31°58' W 080°34'0 0.0
2017-Dec-02 07:52N 31°58' W 080°34'0 0.0
2017-Dec-02 07:28N 31°58' W 080°34'0 0.0
2017-Dec-02 06:52N 31°58' W 080°34'0 0.0
2017-Dec-02 06:22N 31°58' W 080°34'0 0.0
2017-Dec-02 05:58N 31°58' W 080°34'0 0.0
2017-Dec-02 05:16N 31°58' W 080°34'0 0.1
2017-Dec-02 04:58N 31°58' W 080°34'0 0.1
2017-Dec-02 04:28N 31°58' W 080°34'0 0.1
2017-Dec-02 03:58N 31°58' W 080°34'0 0.0
2017-Dec-02 03:28N 31°58' W 080°33'0 0.0
2017-Dec-02 02:58N 31°58' W 080°33'0 0.0
2017-Dec-02 02:22N 31°58' W 080°33'0 0.0
2017-Dec-02 01:58N 31°58' W 080°33'0 0.0
2017-Dec-02 01:22N 31°58' W 080°33'0 0.1
2017-Dec-01 22:52N 31°58' W 080°34'0 0.0
2017-Dec-01 21:52N 31°58' W 080°34'0 0.0
2017-Dec-01 21:28N 31°58' W 080°34'0 0.0
2017-Dec-01 20:58N 31°58' W 080°34'0 0.0
2017-Dec-01 20:28N 31°58' W 080°34'0 0.0
2017-Dec-01 19:58N 31°58' W 080°34'0 0.0
2017-Dec-01 19:22N 31°58' W 080°34'0 0.0
2017-Dec-01 18:52N 31°58' W 080°34'0 0.0
2017-Dec-01 18:28N 31°58' W 080°34'0 0.0
2017-Dec-01 17:58N 31°58' W 080°34'0 0.1
2017-Dec-01 16:28N 31°58' W 080°33'0 0.0
2017-Dec-01 15:58N 31°58' W 080°33'0 0.1
2017-Dec-01 15:22N 31°58' W 080°33'0 0.1
2017-Dec-01 14:58N 31°58' W 080°33'0 0.0
2017-Dec-01 14:28N 31°58' W 080°33'0 0.1
2017-Dec-01 14:00N 31°58' W 080°33'2 4.4
2017-Dec-01 13:30N 31°58' W 080°31'4 8.5
2017-Dec-01 13:00N 31°58' W 080°26'5 9.5
2017-Dec-01 12:30N 31°58' W 080°20'3 6.1
2017-Dec-01 12:00N 31°59' W 080°17'3 6.0
2017-Dec-01 11:30N 32°00' W 080°14'3 6.1
2017-Dec-01 11:00N 32°01' W 080°10'3 6.2
2017-Dec-01 10:30N 32°02' W 080°07'3 6.6
2017-Dec-01 10:00N 32°03' W 080°03'510.5
2017-Dec-01 09:30N 32°05' W 079°58'51412.0
2017-Nov-29 14:36N 39°10' W 074°01'215.6
2017-Nov-29 14:30N 39°12' W 074°01'815.4
2017-Nov-29 14:00N 39°19' W 073°58'815.3
2017-Nov-29 13:30N 39°26' W 073°56'815.3
2017-Nov-29 13:01N 39°34' W 073°53'815.3
2017-Nov-29 12:31N 39°41' W 073°51'815.3
2017-Nov-29 12:01N 39°49' W 073°51'815.4
2017-Nov-29 11:30N 39°57' W 073°49'815.7
2017-Nov-29 11:00N 40°04' W 073°49'713.1
2017-Nov-29 10:30N 40°11' W 073°49'5 9.8
2017-Nov-29 10:00N 40°16' W 073°49'5 9.9
2017-Nov-29 09:30N 40°21' W 073°48'5 9.7
2017-Nov-29 09:00N 40°26' W 073°47'5 9.5
2017-Nov-29 08:30N 40°28' W 073°52'510.3
2017-Nov-29 08:00N 40°31' W 073°58'510.5
2017-Nov-29 07:30N 40°35' W 074°02'4 9.1
2017-Nov-29 07:00N 40°39' W 074°05'3 6.1
2017-Nov-29 06:30N 40°39' W 074°09'1 2.4
2017-Nov-29 06:00N 40°40' W 074°09'0 0.0
2017-Nov-29 05:30N 40°40' W 074°09'0 0.0
2017-Nov-29 04:59N 40°40' W 074°09'0 0.0
2017-Nov-29 04:29N 40°40' W 074°09'0 0.0
2017-Nov-29 03:59N 40°40' W 074°09'0 0.0
2017-Nov-29 03:29N 40°40' W 074°09'0 0.0
2017-Nov-29 02:59N 40°40' W 074°09'0 0.0
2017-Nov-29 02:29N 40°40' W 074°09'0 0.0
2017-Nov-29 01:59N 40°40' W 074°09'0 0.0
2017-Nov-29 01:29N 40°40' W 074°09'0 0.0
2017-Nov-29 00:59N 40°40' W 074°09'0 0.0
2017-Nov-29 00:29N 40°40' W 074°09'0 0.0
2017-Nov-28 23:59N 40°40' W 074°09'0 0.0
2017-Nov-28 23:29N 40°40' W 074°09'0 0.0
2017-Nov-28 22:59N 40°40' W 074°09'0 0.0
2017-Nov-28 22:29N 40°40' W 074°09'0 0.0
2017-Nov-28 21:59N 40°40' W 074°09'0 0.0
2017-Nov-28 21:29N 40°40' W 074°09'0 0.0
2017-Nov-28 20:59N 40°40' W 074°09'0 0.0
2017-Nov-28 20:26N 40°40' W 074°09'0 0.0
2017-Nov-28 19:59N 40°40' W 074°09'0 0.0
2017-Nov-28 19:29N 40°40' W 074°09'0 0.0
2017-Nov-28 18:59N 40°40' W 074°09'0 0.0
2017-Nov-28 18:29N 40°40' W 074°09'0 0.0
2017-Nov-28 17:56N 40°40' W 074°09'0 0.0
2017-Nov-28 17:29N 40°40' W 074°09'0 0.7
2017-Nov-28 17:00N 40°39' W 074°09'1 2.8
2017-Nov-28 16:30N 40°39' W 074°07'3 5.4
2017-Nov-28 16:00N 40°39' W 074°04'9 8.6
2017-Nov-28 15:00N 40°31' W 073°59'610.6
2017-Nov-28 14:29N 40°28' W 073°52'4 7.8
2017-Nov-28 13:59N 40°27' W 073°48'2 4.0
2017-Nov-28 13:28N 40°27' W 073°45'2 4.9
2017-Nov-28 12:58N 40°27' W 073°42'  
Track history (hours):
 
Tides and Currents Weather Stations Pressure Air Temp Water Temp Dewpoint Dewpoint Depression Visibility Wind Speed Wind Dir Waves Ship Positions

Arian

Last reported at 2017-Dec-03 19:51 UTC. Time now 2017-Dec-11 11:16 UTC.
Position N 31°38' W 080°31'.

Length 161 m; draft 9.8 m.

Type: Ship (hazmat cat A). MMSI: 305720000.

Date/timePositionNaut miles runAvg speedWind from/ knotsBaromVisibWave heightAir tempDewpointWater temp
2017-Dec-03 19:51N 31°38' W 080°31'5 9.1
2017-Dec-03 19:21N 31°43' W 080°32'3 9.1
2017-Dec-03 19:00N 31°46' W 080°33'4 9.0
2017-Dec-03 18:30N 31°49' W 080°36'5 9.3
2017-Dec-03 17:59N 31°53' W 080°39'4 9.5
2017-Dec-03 17:30N 31°57' W 080°42'510.6
2017-Dec-03 17:00N 31°60' W 080°47'713.4
2017-Dec-03 16:30N 32°02' W 080°55'612.9
2017-Dec-03 16:00N 32°06' W 081°01'4 8.7
2017-Dec-03 15:30N 32°05' W 081°06'2 4.8
2017-Dec-03 15:00N 32°07' W 081°08'0 0.0
2017-Dec-03 14:30N 32°07' W 081°08'0 0.0
2017-Dec-03 14:00N 32°07' W 081°08'0 0.0
2017-Dec-03 13:30N 32°07' W 081°08'0 0.0
2017-Dec-03 12:54N 32°07' W 081°08'0 0.0
2017-Dec-03 12:30N 32°07' W 081°08'0 0.0
2017-Dec-03 12:00N 32°07' W 081°08'0 0.0
2017-Dec-03 11:30N 32°07' W 081°08'0 0.0
2017-Dec-03 11:00N 32°07' W 081°08'0 0.0
2017-Dec-03 10:24N 32°07' W 081°08'0 0.0
2017-Dec-03 10:00N 32°07' W 081°08'0 0.0
2017-Dec-03 09:30N 32°07' W 081°08'0 0.0
2017-Dec-03 08:54N 32°07' W 081°08'0 0.0
2017-Dec-03 08:24N 32°07' W 081°08'0 0.0
2017-Dec-03 08:00N 32°07' W 081°08'0 0.0
2017-Dec-03 07:30N 32°07' W 081°08'0 0.0
2017-Dec-03 07:00N 32°07' W 081°08'0 0.0
2017-Dec-03 06:30N 32°07' W 081°08'0 0.0
2017-Dec-03 06:00N 32°07' W 081°08'0 0.0
2017-Dec-03 05:30N 32°07' W 081°08'0 0.0
2017-Dec-03 05:00N 32°07' W 081°08'0 0.0
2017-Dec-03 04:30N 32°07' W 081°08'0 0.0
2017-Dec-03 03:48N 32°07' W 081°08'0 0.0
2017-Dec-03 03:30N 32°07' W 081°08'0 0.0
2017-Dec-03 03:00N 32°07' W 081°08'0 0.0
2017-Dec-03 02:30N 32°07' W 081°08'0 0.0
2017-Dec-03 02:00N 32°07' W 081°08'0 0.0
2017-Dec-03 01:30N 32°07' W 081°08'0 0.0
2017-Dec-03 01:00N 32°07' W 081°08'0 0.0
2017-Dec-03 00:24N 32°07' W 081°08'0 0.0
2017-Dec-03 00:00N 32°07' W 081°08'0 0.0
2017-Dec-02 23:30N 32°07' W 081°08'0 0.0
2017-Dec-02 23:00N 32°07' W 081°08'0 0.0
2017-Dec-02 22:30N 32°07' W 081°08'0 0.0
2017-Dec-02 22:00N 32°07' W 081°08'0 0.0
2017-Dec-02 21:30N 32°07' W 081°08'0 0.0
2017-Dec-02 21:00N 32°07' W 081°08'0 0.0
2017-Dec-02 20:30N 32°07' W 081°08'0 0.0
2017-Dec-02 20:00N 32°07' W 081°08'0 0.0
2017-Dec-02 19:24N 32°07' W 081°08'0 0.0
2017-Dec-02 18:54N 32°07' W 081°08'0 0.0
2017-Dec-02 18:30N 32°07' W 081°08'0 0.0
2017-Dec-02 18:00N 32°07' W 081°08'0 0.0
2017-Dec-02 17:30N 32°07' W 081°08'0 0.8
2017-Dec-02 17:00N 32°08' W 081°08'1 2.2
2017-Dec-02 16:30N 32°07' W 081°07'3 6.1
2017-Dec-02 16:01N 32°05' W 081°05'3 6.7
2017-Dec-02 15:31N 32°06' W 081°01'5 9.1
2017-Dec-02 15:00N 32°03' W 080°56'4 8.5
2017-Dec-02 14:30N 32°02' W 080°52'510.4
2017-Dec-02 14:00N 31°59' W 080°46'611.8
2017-Dec-02 13:30N 31°57' W 080°40'4 8.4
2017-Dec-02 13:00N 31°58' W 080°35'2 3.5
2017-Dec-02 12:30N 31°58' W 080°33'0 0.4
2017-Dec-02 12:00N 31°58' W 080°34'0 0.1
2017-Dec-02 11:28N 31°58' W 080°34'0 0.0
2017-Dec-02 10:58N 31°58' W 080°34'0 0.0
2017-Dec-02 10:28N 31°58' W 080°34'0 0.0
2017-Dec-02 09:52N 31°58' W 080°34'0 0.0
2017-Dec-02 09:28N 31°58' W 080°34'0 0.0
2017-Dec-02 08:58N 31°58' W 080°34'0 0.0
2017-Dec-02 08:28N 31°58' W 080°34'0 0.0
2017-Dec-02 07:52N 31°58' W 080°34'0 0.0
2017-Dec-02 07:28N 31°58' W 080°34'0 0.0
2017-Dec-02 06:52N 31°58' W 080°34'0 0.0
2017-Dec-02 06:22N 31°58' W 080°34'0 0.0
2017-Dec-02 05:58N 31°58' W 080°34'0 0.0
2017-Dec-02 05:16N 31°58' W 080°34'0 0.1
2017-Dec-02 04:58N 31°58' W 080°34'0 0.1
2017-Dec-02 04:28N 31°58' W 080°34'0 0.1
2017-Dec-02 03:58N 31°58' W 080°34'0 0.0
2017-Dec-02 03:28N 31°58' W 080°33'0 0.0
2017-Dec-02 02:58N 31°58' W 080°33'0 0.0
2017-Dec-02 02:22N 31°58' W 080°33'0 0.0
2017-Dec-02 01:58N 31°58' W 080°33'0 0.0
2017-Dec-02 01:22N 31°58' W 080°33'0 0.1
2017-Dec-01 22:52N 31°58' W 080°34'0 0.0
2017-Dec-01 21:52N 31°58' W 080°34'0 0.0
2017-Dec-01 21:28N 31°58' W 080°34'0 0.0
2017-Dec-01 20:58N 31°58' W 080°34'0 0.0
2017-Dec-01 20:28N 31°58' W 080°34'0 0.0
2017-Dec-01 19:58N 31°58' W 080°34'0 0.0
2017-Dec-01 19:22N 31°58' W 080°34'0 0.0
2017-Dec-01 18:52N 31°58' W 080°34'0 0.0
2017-Dec-01 18:28N 31°58' W 080°34'0 0.0
2017-Dec-01 17:58N 31°58' W 080°34'0 0.1
2017-Dec-01 16:28N 31°58' W 080°33'0 0.0
2017-Dec-01 15:58N 31°58' W 080°33'0 0.1
2017-Dec-01 15:22N 31°58' W 080°33'0 0.1
2017-Dec-01 14:58N 31°58' W 080°33'0 0.0
2017-Dec-01 14:28N 31°58' W 080°33'0 0.1
2017-Dec-01 14:00N 31°58' W 080°33'2 4.4
2017-Dec-01 13:30N 31°58' W 080°31'4 8.5
2017-Dec-01 13:00N 31°58' W 080°26'5 9.5
2017-Dec-01 12:30N 31°58' W 080°20'3 6.1
2017-Dec-01 12:00N 31°59' W 080°17'3 6.0
2017-Dec-01 11:30N 32°00' W 080°14'3 6.1
2017-Dec-01 11:00N 32°01' W 080°10'3 6.2
2017-Dec-01 10:30N 32°02' W 080°07'3 6.6
2017-Dec-01 10:00N 32°03' W 080°03'510.5
2017-Dec-01 09:30N 32°05' W 079°58'51412.0
2017-Nov-29 14:36N 39°10' W 074°01'215.6
2017-Nov-29 14:30N 39°12' W 074°01'815.4
2017-Nov-29 14:00N 39°19' W 073°58'815.3
2017-Nov-29 13:30N 39°26' W 073°56'815.3
2017-Nov-29 13:01N 39°34' W 073°53'815.3
2017-Nov-29 12:31N 39°41' W 073°51'815.3
2017-Nov-29 12:01N 39°49' W 073°51'815.4
2017-Nov-29 11:30N 39°57' W 073°49'815.7
2017-Nov-29 11:00N 40°04' W 073°49'713.1
2017-Nov-29 10:30N 40°11' W 073°49'5 9.8
2017-Nov-29 10:00N 40°16' W 073°49'5 9.9
2017-Nov-29 09:30N 40°21' W 073°48'5 9.7
2017-Nov-29 09:00N 40°26' W 073°47'5 9.5
2017-Nov-29 08:30N 40°28' W 073°52'510.3
2017-Nov-29 08:00N 40°31' W 073°58'510.5
2017-Nov-29 07:30N 40°35' W 074°02'4 9.1
2017-Nov-29 07:00N 40°39' W 074°05'3 6.1
2017-Nov-29 06:30N 40°39' W 074°09'1 2.4
2017-Nov-29 06:00N 40°40' W 074°09'0 0.0
2017-Nov-29 05:30N 40°40' W 074°09'0 0.0
2017-Nov-29 04:59N 40°40' W 074°09'0 0.0
2017-Nov-29 04:29N 40°40' W 074°09'0 0.0
2017-Nov-29 03:59N 40°40' W 074°09'0 0.0
2017-Nov-29 03:29N 40°40' W 074°09'0 0.0
2017-Nov-29 02:59N 40°40' W 074°09'0 0.0
2017-Nov-29 02:29N 40°40' W 074°09'0 0.0
2017-Nov-29 01:59N 40°40' W 074°09'0 0.0
2017-Nov-29 01:29N 40°40' W 074°09'0 0.0
2017-Nov-29 00:59N 40°40' W 074°09'0 0.0
2017-Nov-29 00:29N 40°40' W 074°09'0 0.0
2017-Nov-28 23:59N 40°40' W 074°09'0 0.0
2017-Nov-28 23:29N 40°40' W 074°09'0 0.0
2017-Nov-28 22:59N 40°40' W 074°09'0 0.0
2017-Nov-28 22:29N 40°40' W 074°09'0 0.0
2017-Nov-28 21:59N 40°40' W 074°09'0 0.0
2017-Nov-28 21:29N 40°40' W 074°09'0 0.0
2017-Nov-28 20:59N 40°40' W 074°09'0 0.0
2017-Nov-28 20:26N 40°40' W 074°09'0 0.0
2017-Nov-28 19:59N 40°40' W 074°09'0 0.0
2017-Nov-28 19:29N 40°40' W 074°09'0 0.0
2017-Nov-28 18:59N 40°40' W 074°09'0 0.0
2017-Nov-28 18:29N 40°40' W 074°09'0 0.0
2017-Nov-28 17:56N 40°40' W 074°09'0 0.0
2017-Nov-28 17:29N 40°40' W 074°09'0 0.7
2017-Nov-28 17:00N 40°39' W 074°09'1 2.8
2017-Nov-28 16:30N 40°39' W 074°07'3 5.4
2017-Nov-28 16:00N 40°39' W 074°04'9 8.6
2017-Nov-28 15:00N 40°31' W 073°59'610.6
2017-Nov-28 14:29N 40°28' W 073°52'4 7.8
2017-Nov-28 13:59N 40°27' W 073°48'2 4.0
2017-Nov-28 13:28N 40°27' W 073°45'2 4.9
2017-Nov-28 12:58N 40°27' W 073°42'  

Dump ship's entire track history